CheckWX is a tool to help pilots better visualize weather data.  It is not intended as a substitute for an official pre-flight weather briefing.

12:24:21 UTC

KAAS METAR
Taylor County Airport
Campbellsville, Kentucky, USA
Current

9 mins ago

KAAS 221215Z AUTO 07007KT 10SM CLR 05/03 A3030 RMK AO1
Observed
Feb-22 @ 12:15 UTC
Wind
  • 070° at 7 KTS
Visibility
10 SM
Flight Rules
VFR
Cloud Levels
  • Clear skies
Temperature
C / 41°F
Dewpoint
C / 37°F
Humidity
87%
Altimeter
30.3" Hg
Pressure
1026.12 hPa
Previous

29 mins ago

KAAS 221155Z AUTO 04007KT 10SM CLR 05/03 A3030 RMK AO1
Observed
Feb-22 @ 11:55 UTC
Wind
  • 040° at 7 KTS
Visibility
10 SM
Flight Rules
VFR
Cloud Levels
  • Clear skies
Temperature
C / 41°F
Dewpoint
C / 37°F
Humidity
87%
Altimeter
30.3" Hg
Pressure
1026.12 hPa
Previous

49 mins ago

KAAS 221135Z AUTO 03005KT 10SM CLR 05/02 A3032 RMK AO1
Observed
Feb-22 @ 11:35 UTC
Wind
  • 030° at 5 KTS
Visibility
10 SM
Flight Rules
VFR
Cloud Levels
  • Clear skies
Temperature
C / 41°F
Dewpoint
C / 36°F
Humidity
81%
Altimeter
30.32" Hg
Pressure
1026.72 hPa